MMCU/CUU METAR and TAF weather

Enter ICAO airport designator
Station Type Date Time Source
MMCU METAR 2019/06/16 02:45 UTC NOAA

MMCU 160245Z 33008KT 10SM SCT030 31/01 A2997 RMK SLP023 52013 955 8/500


Station Type Date Time Source
MMCU Decoded METAR 2019/06/16 02:45 UTC NOAA

Chihuahua International Airport, Mexico (MMCU) 28-42N 105-58W
Jun 15, 2019 - 10:45 PM EDT / 2019.06.16 0245 UTC
Wind: from the NNW (330 degrees) at 9 MPH (8 KT):0
Visibility: 10 mile(s):0
Sky conditions: partly cloudy
Temperature: 87 F (31 C)
Dew Point: 33 F (1 C)
Relative Humidity: 14%
Pressure (altimeter): 29.97 in. Hg (1014 hPa)
Pressure tendency: 0.04 inches (1.3 hPa) higher than three hours ago
ob: MMCU 160245Z 33008KT 10SM SCT030 31/01 A2997 RMK SLP023 52013 955 8/500
cycle: 3

Station Type Date Time Source
MMCU TAF 2019/06/16 06:57 UTC NOAA

TAF MMCU 160455Z 1606/1706 30005KT P6SM SKC
FM161800 25010KT P6SM SCT030
FM170300 24005KT P6SM SKC

Example: see airport list